Time;durP1;ratioP1;P1;durP2;ratioP2;P2;SDS_P1;SDS_P2;PMS_P1;PMS_P2;Temp;Humidity;BMP_temperature;BMP_pressure;BME280_temperature;BME280_humidity;BME280_pressure;Samples;Min_cycle;Max_cycle;Signal;HPM_P1;HPM_P2
2022/05/07 00:00:34;;;;;;;18.10;13.23;;;14.30;99.90;;;;;;5019151;28;20517;-72
2022/05/07 00:03:00;;;;;;;18.90;15.00;;;14.30;99.90;;;;;;5035506;28;20512;-72
2022/05/07 00:05:25;;;;;;;18.02;13.70;;;14.30;99.90;;;;;;5019049;28;20506;-72
2022/05/07 00:07:51;;;;;;;18.13;14.88;;;14.30;99.90;;;;;;5035283;28;20485;-72
2022/05/07 00:10:17;;;;;;;17.85;14.20;;;14.30;99.90;;;;;;5035539;28;20037;-72
2022/05/07 00:12:43;;;;;;;16.25;13.90;;;14.30;99.90;;;;;;5035134;28;20513;-72
2022/05/07 00:15:09;;;;;;;17.50;14.18;;;14.30;99.90;;;;;;5035225;28;20228;-72
2022/05/07 00:20:19;;;;;;;17.25;15.38;;;14.30;99.90;;;;;;5035050;28;20049;-72
2022/05/07 00:22:45;;;;;;;18.13;16.20;;;14.30;99.90;;;;;;5018466;28;20033;-72
2022/05/07 00:25:11;;;;;;;19.23;17.23;;;14.30;99.90;;;;;;5018467;28;20472;-72
2022/05/07 00:27:37;;;;;;;21.30;19.20;;;14.30;99.90;;;;;;5034904;28;20045;-72
2022/05/07 00:30:06;;;;;;;24.13;18.33;;;14.30;99.90;;;;;;5034922;28;20052;-72
2022/05/07 00:32:32;;;;;;;21.60;17.10;;;14.30;99.90;;;;;;5034573;28;20041;-72
2022/05/07 00:34:58;;;;;;;20.58;16.90;;;14.30;99.90;;;;;;5034580;28;20056;-72
2022/05/07 00:37:24;;;;;;;18.98;16.40;;;14.20;99.90;;;;;;5070816;22;20033;-71
2022/05/07 00:39:50;;;;;;;18.17;15.73;;;14.20;99.90;;;;;;5054709;28;20207;-71
2022/05/07 00:42:16;;;;;;;19.05;17.13;;;14.20;99.90;;;;;;5054442;28;20111;-71
2022/05/07 00:44:41;;;;;;;19.38;17.00;;;14.20;99.90;;;;;;5054376;28;20069;-71
2022/05/07 00:47:15;;;;;;;21.35;17.13;;;14.10;99.90;;;;;;5054239;28;20083;-71
2022/05/07 00:49:46;;;;;;;19.45;17.45;;;14.10;99.90;;;;;;5054308;28;20489;-71
2022/05/07 00:52:13;;;;;;;19.38;16.63;;;14.00;99.90;;;;;;5037672;28;20052;-71
2022/05/07 00:54:39;;;;;;;19.10;15.95;;;14.00;99.90;;;;;;5054164;28;20079;-71
2022/05/07 00:57:05;;;;;;;20.98;18.80;;;14.00;99.90;;;;;;5054127;28;20040;-71
2022/05/07 00:59:31;;;;;;;21.25;17.92;;;14.00;99.90;;;;;;5054099;28;20045;-71
2022/05/07 01:01:56;;;;;;;21.70;17.10;;;14.00;99.90;;;;;;5053388;28;20123;-71
2022/05/07 01:04:22;;;;;;;20.13;17.85;;;14.00;99.90;;;;;;5053960;28;20559;-71
2022/05/07 01:06:48;;;;;;;20.23;17.73;;;13.90;99.90;;;;;;5053917;28;20040;-71
2022/05/07 01:09:14;;;;;;;23.13;18.15;;;14.00;99.90;;;;;;5054153;28;20130;-71
2022/05/07 01:11:41;;;;;;;19.73;17.58;;;14.00;99.90;;;;;;5053903;28;20496;-71
2022/05/07 01:14:07;;;;;;;22.75;18.80;;;14.00;99.90;;;;;;5053849;28;20083;-71
2022/05/07 01:16:32;;;;;;;23.25;18.65;;;14.10;99.90;;;;;;5053595;28;20045;-71
2022/05/07 01:18:58;;;;;;;21.27;18.15;;;14.10;99.90;;;;;;5037094;28;20041;-71
2022/05/07 01:21:24;;;;;;;20.45;18.08;;;14.10;99.90;;;;;;5053680;28;20120;-71
2022/05/07 01:23:49;;;;;;;21.13;18.00;;;14.20;99.90;;;;;;5053624;28;20041;-71
2022/05/07 01:26:20;;;;;;;23.42;18.55;;;14.20;99.90;;;;;;5053537;28;20052;-71
2022/05/07 01:28:46;;;;;;;20.63;18.42;;;14.20;99.90;;;;;;5053646;28;20045;-71
2022/05/07 01:31:12;;;;;;;19.95;17.90;;;14.20;99.90;;;;;;5053510;28;20497;-71
2022/05/07 01:33:38;;;;;;;20.75;18.52;;;14.20;99.90;;;;;;5053647;28;20056;-71
2022/05/07 01:36:07;;;;;;;21.60;18.13;;;14.20;99.90;;;;;;5053122;28;20041;-71
2022/05/07 01:38:34;;;;;;;19.05;17.15;;;14.20;99.90;;;;;;5053397;28;20052;-71
2022/05/07 01:40:59;;;;;;;21.90;18.33;;;14.10;99.90;;;;;;5053305;28;20116;-71
2022/05/07 01:43:27;;;;;;;20.42;16.77;;;14.10;99.90;;;;;;5053241;28;20164;-71
2022/05/07 01:45:54;;;;;;;19.45;17.23;;;14.10;99.90;;;;;;5053508;28;20080;-71
2022/05/07 01:48:20;;;;;;;19.83;17.67;;;14.10;99.90;;;;;;5036745;28;20049;-71
2022/05/07 01:50:46;;;;;;;23.48;19.27;;;14.10;99.90;;;;;;5053413;28;20413;-71
2022/05/07 01:53:14;;;;;;;20.00;17.85;;;14.10;99.90;;;;;;5036518;28;20489;-71
2022/05/07 01:55:40;;;;;;;20.13;17.48;;;14.10;99.90;;;;;;5052975;28;20045;-71
2022/05/07 01:58:06;;;;;;;21.08;18.15;;;14.10;99.90;;;;;;5053668;28;20040;-71
2022/05/07 02:00:33;;;;;;;21.77;18.42;;;14.10;99.90;;;;;;5052969;28;20037;-71
2022/05/07 02:02:59;;;;;;;20.90;18.27;;;14.10;99.90;;;;;;5052899;28;20485;-71
2022/05/07 02:05:27;;;;;;;20.40;18.30;;;14.10;99.90;;;;;;5052825;28;20045;-71
2022/05/07 02:07:54;;;;;;;23.55;19.05;;;14.00;99.90;;;;;;5052990;28;20106;-71
2022/05/07 02:10:20;;;;;;;25.75;19.92;;;14.00;99.90;;;;;;5052764;28;20048;-71
2022/05/07 02:12:46;;;;;;;22.73;20.30;;;14.00;99.90;;;;;;5052882;28;20044;-71
2022/05/07 02:15:11;;;;;;;23.05;20.63;;;14.00;99.90;;;;;;5052612;28;20413;-71
2022/05/07 02:17:37;;;;;;;24.25;19.75;;;14.00;99.90;;;;;;5052538;28;20037;-71
2022/05/07 02:20:03;;;;;;;26.17;20.55;;;14.00;99.90;;;;;;5052595;28;20099;-71
2022/05/07 02:22:29;;;;;;;23.85;20.80;;;14.00;99.90;;;;;;5052529;28;20037;-71
2022/05/07 02:24:55;;;;;;;20.92;18.70;;;14.10;99.90;;;;;;5052694;28;20037;-71
2022/05/07 02:27:21;;;;;;;24.70;20.05;;;14.10;99.90;;;;;;5052315;28;20239;-71
2022/05/07 02:29:46;;;;;;;22.42;19.50;;;14.10;99.90;;;;;;5052342;28;20033;-71
2022/05/07 02:32:13;;;;;;;24.08;19.75;;;14.10;99.90;;;;;;5052586;28;20045;-71
2022/05/07 02:34:40;;;;;;;22.65;20.17;;;14.10;99.90;;;;;;5052309;28;20044;-71
2022/05/07 02:37:06;;;;;;;23.83;20.80;;;14.10;99.90;;;;;;5052015;28;20047;-71
2022/05/07 02:39:32;;;;;;;23.52;21.13;;;14.10;99.90;;;;;;5035900;28;20041;-71
2022/05/07 02:44:43;;;;;;;22.73;20.27;;;14.10;99.90;;;;;;5052181;28;20488;-71
2022/05/07 02:47:08;;;;;;;24.02;20.33;;;14.00;99.90;;;;;;5052069;28;20041;-71
2022/05/07 02:49:34;;;;;;;22.52;20.20;;;14.00;99.90;;;;;;5052092;28;20135;-71
2022/05/07 02:52:00;;;;;;;23.25;20.65;;;14.00;99.90;;;;;;5051978;28;20041;-71
2022/05/07 02:54:26;;;;;;;23.27;19.92;;;14.00;99.90;;;;;;5052032;28;20037;-71
2022/05/07 02:56:51;;;;;;;22.60;20.17;;;14.00;99.90;;;;;;5051822;28;20079;-71
2022/05/07 02:59:17;;;;;;;26.48;20.40;;;13.90;99.90;;;;;;5051949;28;20043;-71
2022/05/07 03:01:43;;;;;;;23.00;19.98;;;13.90;99.90;;;;;;5051893;28;20067;-71
2022/05/07 03:04:09;;;;;;;22.52;20.15;;;13.90;99.90;;;;;;5051891;28;20090;-71
2022/05/07 03:06:35;;;;;;;23.92;20.67;;;13.80;99.90;;;;;;5051988;28;20041;-71
2022/05/07 03:09:02;;;;;;;22.70;20.42;;;13.80;99.90;;;;;;5052034;28;20036;-71
2022/05/07 03:11:27;;;;;;;23.08;19.85;;;13.80;99.90;;;;;;5035127;28;20079;-71
2022/05/07 03:13:53;;;;;;;26.83;20.38;;;13.80;99.90;;;;;;5051758;28;20095;-71
2022/05/07 03:16:19;;;;;;;23.45;20.80;;;13.80;99.90;;;;;;5034999;28;20120;-71
2022/05/07 03:18:44;;;;;;;20.70;18.67;;;13.80;99.90;;;;;;5051622;28;20041;-71
2022/05/07 03:21:10;;;;;;;22.35;19.73;;;13.80;99.90;;;;;;5051916;28;20175;-71
2022/05/07 03:23:35;;;;;;;22.67;20.48;;;13.80;99.90;;;;;;5051627;28;20405;-71
2022/05/07 03:26:01;;;;;;;23.17;20.85;;;13.80;99.90;;;;;;5053745;28;20040;-71
2022/05/07 03:28:26;;;;;;;22.58;20.17;;;13.80;99.90;;;;;;5056056;28;20408;-71
2022/05/07 03:30:52;;;;;;;22.85;20.38;;;13.80;99.90;;;;;;5055785;28;20045;-71
2022/05/07 03:33:18;;;;;;;21.13;18.85;;;13.80;99.90;;;;;;5055784;28;20048;-71
2022/05/07 03:35:43;;;;;;;20.77;18.58;;;13.80;99.90;;;;;;5055589;28;20036;-71
2022/05/07 03:38:10;;;;;;;25.27;20.30;;;13.80;99.90;;;;;;5055472;28;20033;-71
2022/05/07 03:40:35;;;;;;;21.38;19.15;;;13.80;99.90;;;;;;5055876;28;20124;-71
2022/05/07 03:43:03;;;;;;;25.25;18.92;;;13.80;99.90;;;;;;5055545;28;20064;-71
2022/05/07 03:45:29;;;;;;;22.08;19.75;;;13.80;99.90;;;;;;5055541;28;20103;-71
2022/05/07 03:47:56;;;;;;;22.48;19.45;;;13.80;99.90;;;;;;5055690;28;20048;-71
2022/05/07 03:50:21;;;;;;;22.33;20.02;;;13.80;99.90;;;;;;5055674;28;20051;-71
2022/05/07 03:55:31;;;;;;;22.25;19.15;;;13.90;99.90;;;;;;5055259;28;20053;-71
2022/05/07 03:57:57;;;;;;;20.42;18.33;;;13.90;99.90;;;;;;5055233;28;20041;-71
2022/05/07 04:00:22;;;;;;;20.45;18.33;;;13.90;99.90;;;;;;5055266;28;20064;-71
2022/05/07 04:02:48;;;;;;;20.27;18.17;;;14.00;99.90;;;;;;5055185;28;20044;-71
2022/05/07 04:05:13;;;;;;;20.63;18.63;;;14.00;99.90;;;;;;5055383;28;20032;-71
2022/05/07 04:07:39;;;;;;;20.90;18.63;;;14.00;99.90;;;;;;5055027;28;20548;-71
2022/05/07 04:10:06;;;;;;;21.65;19.35;;;13.90;99.90;;;;;;5055340;28;20123;-71
2022/05/07 04:12:31;;;;;;;22.40;19.35;;;14.00;99.90;;;;;;5054918;28;20052;-71
2022/05/07 04:15:00;;;;;;;20.27;18.17;;;14.00;99.90;;;;;;5054879;28;20037;-71
2022/05/07 04:17:26;;;;;;;22.13;19.73;;;14.00;99.90;;;;;;5055083;28;20512;-71
2022/05/07 04:19:52;;;;;;;22.95;20.55;;;13.90;99.90;;;;;;5038244;28;20037;-71
2022/05/07 04:22:18;;;;;;;22.73;19.70;;;14.00;99.90;;;;;;5055177;28;20043;-71
2022/05/07 04:24:44;;;;;;;24.70;20.65;;;13.90;99.90;;;;;;5054832;28;20045;-71
2022/05/07 04:27:10;;;;;;;22.48;19.92;;;13.90;99.90;;;;;;5054719;28;20075;-71
2022/05/07 04:29:35;;;;;;;25.02;20.77;;;13.90;99.90;;;;;;5054721;28;20045;-71
2022/05/07 04:32:02;;;;;;;22.30;19.48;;;13.90;99.90;;;;;;5054635;28;20044;-71
2022/05/07 04:34:29;;;;;;;23.08;20.45;;;13.90;99.90;;;;;;5054887;28;20041;-71
2022/05/07 04:36:58;;;;;;;24.38;21.98;;;13.90;99.90;;;;;;5052946;28;20068;-71
2022/05/07 04:39:23;;;;;;;21.85;19.75;;;13.90;99.90;;;;;;5054795;28;20067;-71
2022/05/07 04:41:49;;;;;;;26.75;21.63;;;13.90;99.90;;;;;;5054493;28;20064;-71
2022/05/07 04:44:14;;;;;;;25.17;21.52;;;13.90;99.90;;;;;;5037797;28;20040;-71
2022/05/07 04:46:40;;;;;;;23.40;20.98;;;13.90;99.90;;;;;;5054583;28;20170;-71
2022/05/07 04:49:06;;;;;;;24.65;22.05;;;13.90;99.90;;;;;;5054296;28;20493;-71
2022/05/07 04:51:32;;;;;;;24.35;21.80;;;13.90;99.90;;;;;;5054345;28;20133;-71
2022/05/07 04:53:57;;;;;;;26.25;23.08;;;13.80;99.90;;;;;;5054209;28;20085;-71
2022/05/07 04:56:24;;;;;;;24.92;22.13;;;13.80;99.90;;;;;;5054170;28;20044;-71
2022/05/07 04:58:51;;;;;;;24.75;22.25;;;13.80;99.90;;;;;;5054134;28;20500;-71
2022/05/07 05:01:17;;;;;;;24.58;21.92;;;13.80;99.90;;;;;;5054122;28;20037;-71
2022/05/07 05:03:42;;;;;;;25.02;22.17;;;13.80;99.90;;;;;;5054087;28;20059;-71
2022/05/07 05:06:08;;;;;;;25.95;22.38;;;13.80;99.90;;;;;;5053953;28;20131;-71
2022/05/07 05:08:34;;;;;;;25.45;22.80;;;13.80;99.90;;;;;;5054235;28;20060;-71
2022/05/07 05:10:59;;;;;;;25.42;22.80;;;13.80;99.90;;;;;;5054189;28;20057;-71
2022/05/07 05:13:25;;;;;;;26.80;22.55;;;13.80;99.90;;;;;;5054037;28;20047;-71
2022/05/07 05:15:51;;;;;;;27.27;23.30;;;13.80;99.90;;;;;;5037139;28;20041;-71
2022/05/07 05:18:16;;;;;;;25.33;22.70;;;13.80;99.90;;;;;;5053762;28;20037;-71
2022/05/07 05:20:42;;;;;;;24.65;22.13;;;13.80;99.90;;;;;;5053784;28;20033;-71
2022/05/07 05:23:08;;;;;;;26.80;23.60;;;13.80;99.90;;;;;;5053700;28;20045;-71
2022/05/07 05:25:33;;;;;;;25.25;22.65;;;13.80;99.90;;;;;;5053655;28;20040;-71
2022/05/07 05:27:59;;;;;;;26.77;23.17;;;13.80;99.90;;;;;;5053799;28;20047;-70
2022/05/07 05:30:24;;;;;;;24.75;22.33;;;13.80;99.90;;;;;;5053783;28;20504;-71
2022/05/07 05:32:50;;;;;;;27.17;22.70;;;13.80;99.90;;;;;;5053459;28;20053;-71
2022/05/07 05:35:16;;;;;;;30.17;23.50;;;13.80;99.90;;;;;;5053585;28;20036;-71
2022/05/07 05:37:42;;;;;;;25.00;22.20;;;13.90;99.90;;;;;;5053333;28;20481;-71
2022/05/07 05:40:08;;;;;;;26.60;23.65;;;13.90;99.90;;;;;;5053298;28;20033;-71
2022/05/07 05:42:33;;;;;;;27.40;23.20;;;14.00;99.90;;;;;;5053323;28;20120;-71
2022/05/07 05:44:59;;;;;;;24.13;21.73;;;14.10;99.90;;;;;;5053272;28;20166;-70
2022/05/07 05:47:25;;;;;;;26.08;23.27;;;14.10;99.90;;;;;;5053120;28;20124;-71
2022/05/07 05:49:51;;;;;;;25.02;22.33;;;14.10;99.90;;;;;;5036181;28;20120;-70
2022/05/07 05:52:16;;;;;;;25.02;21.63;;;14.10;99.90;;;;;;5053399;28;20036;-71
2022/05/07 05:54:42;;;;;;;25.00;22.38;;;14.20;99.90;;;;;;5053067;28;20033;-70
2022/05/07 05:57:07;;;;;;;26.52;22.58;;;14.30;99.90;;;;;;5053010;28;20037;-70
2022/05/07 05:59:33;;;;;;;24.50;21.95;;;14.30;99.90;;;;;;5053182;28;20382;-70
2022/05/07 06:01:58;;;;;;;26.58;21.50;;;14.30;99.90;;;;;;5054170;28;20440;-70
2022/05/07 06:04:24;;;;;;;24.27;20.63;;;14.40;99.90;;;;;;5052889;28;20390;-70
2022/05/07 06:06:50;;;;;;;24.27;20.80;;;14.40;99.90;;;;;;5052998;28;20085;-71
2022/05/07 06:09:15;;;;;;;22.35;20.15;;;14.50;99.90;;;;;;5052807;28;20048;-70
2022/05/07 06:11:41;;;;;;;22.55;20.25;;;14.60;99.90;;;;;;5052744;28;20044;-70
2022/05/07 06:14:07;;;;;;;24.95;20.00;;;14.70;99.90;;;;;;5036121;28;20041;-70
2022/05/07 06:16:33;;;;;;;20.77;18.58;;;14.70;99.90;;;;;;5052584;28;20091;-70
2022/05/07 06:18:59;;;;;;;23.23;19.63;;;14.70;99.90;;;;;;5052667;28;20032;-70
2022/05/07 06:21:25;;;;;;;27.70;19.60;;;14.80;99.90;;;;;;5052552;28;20120;-70
2022/05/07 06:23:50;;;;;;;19.85;17.42;;;14.80;99.90;;;;;;5052698;28;20045;-70
2022/05/07 06:29:01;;;;;;;21.85;17.73;;;14.90;99.90;;;;;;5052448;28;20045;-70
2022/05/07 06:31:27;;;;;;;20.35;18.25;;;14.90;99.90;;;;;;5052423;28;20124;-70
2022/05/07 06:33:52;;;;;;;20.70;17.52;;;14.90;99.90;;;;;;5052349;28;20187;-70
2022/05/07 06:36:21;;;;;;;21.80;18.20;;;14.90;99.90;;;;;;5052535;28;20043;-70
2022/05/07 06:38:46;;;;;;;23.50;18.10;;;15.00;99.90;;;;;;5052278;28;20171;-70
2022/05/07 06:41:12;;;;;;;21.63;18.02;;;15.00;99.90;;;;;;5052799;28;20131;-71
2022/05/07 06:43:38;;;;;;;19.58;17.63;;;15.10;99.90;;;;;;5053808;28;20456;-70
2022/05/07 06:46:03;;;;;;;22.17;17.52;;;15.10;99.90;;;;;;5052227;28;20037;-70
2022/05/07 06:48:29;;;;;;;20.65;17.35;;;15.10;99.90;;;;;;5035947;28;20039;-70
2022/05/07 06:50:55;;;;;;;18.20;16.20;;;15.20;99.90;;;;;;5052110;28;20048;-70
2022/05/07 06:53:21;;;;;;;19.17;16.23;;;15.30;99.90;;;;;;5052065;28;20048;-70
2022/05/07 06:55:55;;;;;;;21.08;16.25;;;15.30;99.90;;;;;;5052430;28;20094;-70
2022/05/07 06:58:34;;;;;;;19.70;14.57;;;15.30;99.90;;;;;;5051953;28;20036;-70
2022/05/07 07:01:01;;;;;;;18.23;15.85;;;15.30;99.90;;;;;;5051237;28;20045;-70
2022/05/07 07:03:27;;;;;;;19.48;16.00;;;15.30;99.90;;;;;;5051920;28;20523;-70
2022/05/07 07:05:55;;;;;;;21.15;15.32;;;15.40;99.90;;;;;;5052145;28;20044;-70
2022/05/07 07:08:21;;;;;;;16.75;14.98;;;15.40;99.90;;;;;;5035118;28;20497;-70
2022/05/07 07:10:47;;;;;;;17.10;15.27;;;15.50;99.90;;;;;;5052094;28;20102;-70
2022/05/07 07:13:13;;;;;;;17.15;14.88;;;15.60;99.90;;;;;;5052059;28;20047;-70
2022/05/07 07:15:39;;;;;;;21.02;14.77;;;15.70;99.90;;;;;;5035005;28;20413;-70
2022/05/07 07:18:09;;;;;;;18.95;14.55;;;15.70;99.90;;;;;;5051691;28;20037;-70
2022/05/07 07:20:36;;;;;;;22.70;15.57;;;15.80;99.90;;;;;;5035100;28;20075;-70
2022/05/07 07:23:02;;;;;;;16.80;15.02;;;15.90;99.90;;;;;;5051888;28;20573;-70
2022/05/07 07:25:28;;;;;;;19.05;15.05;;;16.00;99.90;;;;;;5051575;28;20120;-70
2022/05/07 07:27:53;;;;;;;17.73;14.60;;;16.10;99.90;;;;;;5051530;28;20094;-70
2022/05/07 07:30:19;;;;;;;18.58;14.02;;;16.10;99.90;;;;;;5051902;28;20049;-70
2022/05/07 07:32:44;;;;;;;18.88;14.20;;;16.20;99.90;;;;;;5052677;28;20044;-70
2022/05/07 07:35:10;;;;;;;19.48;15.20;;;16.20;99.90;;;;;;5051828;28;20566;-70
2022/05/07 07:37:35;;;;;;;19.55;15.95;;;16.30;99.90;;;;;;5051378;28;20501;-70
2022/05/07 07:40:02;;;;;;;17.10;14.73;;;16.30;99.90;;;;;;5051479;28;20037;-70
2022/05/07 07:42:27;;;;;;;17.13;14.93;;;16.40;99.90;;;;;;5051496;28;20037;-70
2022/05/07 07:50:22;;;;;;;21.23;18.38;;;16.70;99.90;;;;;;5051716;28;20081;-70
2022/05/07 07:52:52;;;;;;;21.80;18.85;;;16.80;99.90;;;;;;5051447;28;20516;-70
2022/05/07 07:55:18;;;;;;;22.02;19.50;;;16.80;99.90;;;;;;5051585;28;20405;-70
2022/05/07 07:57:43;;;;;;;24.73;20.75;;;16.90;99.90;;;;;;5051557;28;20489;-70
2022/05/07 08:00:09;;;;;;;26.85;21.77;;;17.00;99.90;;;;;;5051375;28;20389;-71
2022/05/07 08:02:49;;;;;;;26.63;20.65;;;17.00;99.90;;;;;;5051522;28;20127;-70
2022/05/07 08:05:14;;;;;;;27.17;21.00;;;17.10;99.90;;;;;;5051433;28;20045;-70
2022/05/07 08:13:08;;;;;;;25.45;21.70;;;17.30;99.90;;;;;;5055041;28;20049;-69
2022/05/07 08:15:34;;;;;;;27.38;23.20;;;17.20;99.90;;;;;;5054902;28;20045;-69
2022/05/07 08:17:59;;;;;;;31.88;23.75;;;17.20;99.90;;;;;;5054845;28;20041;-70
2022/05/07 08:20:25;;;;;;;28.25;23.42;;;17.20;99.90;;;;;;5038586;28;20159;-70
2022/05/07 08:22:50;;;;;;;26.75;23.35;;;17.20;99.90;;;;;;5038211;28;20079;-70
2022/05/07 08:25:16;;;;;;;30.65;23.65;;;17.20;99.90;;;;;;5055055;28;20062;-70
2022/05/07 08:27:41;;;;;;;25.75;23.10;;;17.20;99.90;;;;;;5054724;28;20044;-70
2022/05/07 08:30:08;;;;;;;25.38;22.67;;;17.30;99.90;;;;;;5054731;28;20048;-70
2022/05/07 08:32:33;;;;;;;29.13;23.20;;;17.40;99.90;;;;;;5054644;28;20037;-70
2022/05/07 08:34:59;;;;;;;27.00;24.20;;;17.50;99.90;;;;;;5054774;28;20045;-70
2022/05/07 08:37:24;;;;;;;32.42;25.67;;;17.50;99.90;;;;;;5038185;28;20127;-70
2022/05/07 08:39:50;;;;;;;28.48;24.63;;;17.60;99.90;;;;;;5054446;28;20485;-70
2022/05/07 08:42:15;;;;;;;25.15;22.52;;;17.60;99.90;;;;;;5054740;28;20049;-70
2022/05/07 08:44:41;;;;;;;27.23;24.02;;;17.60;99.90;;;;;;5054601;28;20382;-70
2022/05/07 08:47:07;;;;;;;30.05;25.20;;;17.60;99.90;;;;;;5054523;28;20538;-70
2022/05/07 08:49:32;;;;;;;32.13;25.48;;;17.60;99.90;;;;;;5054346;28;20554;-70
2022/05/07 08:52:02;;;;;;;30.42;25.58;;;17.60;99.90;;;;;;5054572;28;20043;-70
2022/05/07 08:54:29;;;;;;;29.90;24.98;;;17.60;99.90;;;;;;5054205;28;20041;-70
2022/05/07 08:56:56;;;;;;;26.95;24.08;;;17.60;99.90;;;;;;5054078;28;20110;-69
2022/05/07 08:59:22;;;;;;;26.75;23.90;;;17.60;99.90;;;;;;5054093;28;20041;-70
2022/05/07 09:01:48;;;;;;;29.02;24.52;;;17.60;99.90;;;;;;5055098;28;20037;-70
2022/05/07 09:04:13;;;;;;;28.80;23.50;;;17.70;99.90;;;;;;5053962;28;20493;-70
2022/05/07 09:06:39;;;;;;;28.23;24.30;;;17.80;99.90;;;;;;5053887;28;20052;-70
2022/05/07 09:09:06;;;;;;;27.95;24.58;;;17.80;99.90;;;;;;5053905;28;20083;-70
2022/05/07 09:11:42;;;;;;;26.38;23.40;;;17.90;99.90;;;;;;5053860;28;20549;-70
2022/05/07 09:14:08;;;;;;;32.75;23.80;;;17.90;99.90;;;;;;5053793;28;20072;-70
2022/05/07 09:16:46;;;;;;;29.15;23.85;;;17.90;99.90;;;;;;5053757;28;20037;-70
2022/05/07 09:19:28;;;;;;;36.60;25.85;;;18.10;99.90;;;;;;5053780;28;20436;-70
2022/05/07 09:22:26;;;;;;;27.27;24.03;;;18.20;99.90;;;;;;5053698;28;20116;-70
2022/05/07 09:24:54;;;;;;;27.70;24.80;;;18.20;99.90;;;;;;4976976;28;20142;-70
2022/05/07 09:27:20;;;;;;;26.42;22.73;;;18.30;99.90;;;;;;4977131;28;20047;-70
2022/05/07 09:29:45;;;;;;;27.02;24.17;;;18.30;99.90;;;;;;4960911;28;20080;-70
2022/05/07 09:32:16;;;;;;;27.85;23.58;;;18.30;99.90;;;;;;4977057;28;20050;-70
2022/05/07 09:37:39;;;;;;;26.75;23.95;;;18.40;99.90;;;;;;4976897;28;20086;-70
2022/05/07 09:40:09;;;;;;;28.25;23.60;;;18.50;99.90;;;;;;4977076;28;20054;-70
2022/05/07 09:42:35;;;;;;;26.92;22.83;;;18.50;99.90;;;;;;4977175;28;20518;-70
2022/05/07 09:45:01;;;;;;;27.63;22.75;;;18.50;99.90;;;;;;4976970;28;20126;-70
2022/05/07 09:47:27;;;;;;;24.40;21.80;;;18.60;99.90;;;;;;4976824;28;20054;-71
2022/05/07 09:57:30;;;;;;;27.25;23.30;;;18.60;99.90;;;;;;4977482;28;20046;-70
2022/05/07 09:58:09;;;;;;;28.52;25.55;;;18.70;99.90;;;;;;4976530;28;20044;-70
2022/05/07 10:00:47;;;;;;;26.77;23.92;;;18.70;99.90;;;;;;4977200;28;20049;-71
2022/05/07 10:03:22;;;;;;;24.20;21.83;;;18.80;99.90;;;;;;5053280;28;20069;-71
2022/05/07 10:06:16;;;;;;;25.00;22.27;;;18.70;99.90;;;;;;5053245;28;20106;-71
2022/05/07 10:09:12;;;;;;;25.67;23.08;;;18.70;99.90;;;;;;5052850;28;20044;-71
2022/05/07 10:11:38;;;;;;;28.52;22.85;;;18.70;99.90;;;;;;5036217;28;20047;-71
2022/05/07 10:14:04;;;;;;;25.92;22.98;;;18.70;99.90;;;;;;5052757;28;20041;-71
2022/05/07 10:16:30;;;;;;;25.60;21.92;;;18.80;99.90;;;;;;5053535;28;20048;-71
2022/05/07 10:18:57;;;;;;;26.63;22.55;;;18.80;99.90;;;;;;5052802;28;20131;-71
2022/05/07 10:21:22;;;;;;;27.52;22.13;;;18.80;99.90;;;;;;5052608;28;20084;-71
2022/05/07 10:23:56;;;;;;;23.55;21.00;;;18.90;99.90;;;;;;5035885;28;20068;-71
2022/05/07 10:26:41;;;;;;;24.00;21.60;;;18.90;99.90;;;;;;5052668;28;20045;-71
2022/05/07 10:29:07;;;;;;;25.05;20.70;;;19.00;99.90;;;;;;5052693;28;20488;-71
2022/05/07 10:31:46;;;;;;;25.48;20.58;;;19.10;99.90;;;;;;5052473;28;20041;-71
2022/05/07 10:34:24;;;;;;;23.23;20.75;;;19.20;99.90;;;;;;5052669;28;20052;-71
2022/05/07 10:37:03;;;;;;;26.00;21.48;;;19.30;99.90;;;;;;5035494;28;20099;-71
2022/05/07 10:39:29;;;;;;;21.67;19.35;;;19.40;99.90;;;;;;5052237;28;20386;-73
2022/05/07 10:41:54;;;;;;;23.77;20.70;;;19.50;99.90;;;;;;5052203;28;20116;-73
2022/05/07 10:44:33;;;;;;;24.58;20.65;;;19.70;99.90;;;;;;5052131;28;20036;-73
2022/05/07 10:47:18;;;;;;;25.05;20.55;;;19.80;99.90;;;;;;5035422;28;20467;-73
2022/05/07 10:50:06;;;;;;;23.92;21.42;;;19.90;99.90;;;;;;5052084;28;20130;-73
2022/05/07 10:52:34;;;;;;;20.75;18.40;;;20.00;99.90;;;;;;5035348;28;20044;-73
2022/05/07 10:55:11;;;;;;;23.00;19.85;;;20.00;99.90;;;;;;5051984;28;20122;-73
2022/05/07 10:57:47;;;;;;;24.55;20.67;;;20.10;99.90;;;;;;5051915;28;20037;-73
2022/05/07 11:00:19;;;;;;;22.98;19.15;;;20.10;99.90;;;;;;5051936;28;20040;-73
2022/05/07 11:02:45;;;;;;;20.75;18.63;;;20.10;99.90;;;;;;5052120;28;20045;-73
2022/05/07 11:05:11;;;;;;;21.50;19.17;;;20.10;99.90;;;;;;5051941;28;20094;-73
2022/05/07 11:07:38;;;;;;;21.63;19.42;;;20.20;99.90;;;;;;5052049;28;20095;-73
2022/05/07 11:10:05;;;;;;;21.73;18.95;;;20.20;99.90;;;;;;5051765;28;20547;-73
2022/05/07 11:12:30;;;;;;;24.58;19.75;;;20.30;99.90;;;;;;5051769;28;20040;-73
2022/05/07 11:14:56;;;;;;;21.15;18.58;;;20.40;99.90;;;;;;5051690;28;20040;-72
2022/05/07 11:17:48;;;;;;;22.52;19.63;;;20.50;99.90;;;;;;5034943;28;20049;-73
2022/05/07 11:20:14;;;;;;;20.38;18.15;;;20.60;99.90;;;;;;5048262;28;20076;-74
2022/05/07 11:22:40;;;;;;;19.60;17.50;;;20.60;99.90;;;;;;5051653;28;20105;-73
2022/05/07 11:25:06;;;;;;;23.98;17.15;;;20.70;99.90;;;;;;5051842;28;20036;-74
2022/05/07 11:27:34;;;;;;;20.70;16.73;;;20.80;99.90;;;;;;5051561;28;20045;-73
2022/05/07 11:30:04;;;;;;;17.27;15.38;;;20.90;99.90;;;;;;5051540;28;20481;-73
2022/05/07 11:32:42;;;;;;;20.02;16.25;;;21.10;99.60;;;;;;5034933;28;20033;-72
2022/05/07 11:35:12;;;;;;;16.98;13.15;;;21.30;97.30;;;;;;5051708;28;20512;-72
2022/05/07 11:37:43;;;;;;;16.85;14.13;;;21.50;97.00;;;;;;5051346;28;20037;-72
2022/05/07 11:40:10;;;;;;;21.35;14.50;;;21.70;94.60;;;;;;5051773;28;20039;-72
2022/05/07 11:42:40;;;;;;;18.17;16.17;;;21.70;93.60;;;;;;5035093;28;20044;-72
2022/05/07 11:45:26;;;;;;;19.40;17.35;;;21.60;95.20;;;;;;5051386;28;20040;-73
2022/05/07 11:48:13;;;;;;;20.80;17.77;;;21.60;94.20;;;;;;5054970;28;20119;-73
2022/05/07 11:50:59;;;;;;;23.70;16.92;;;21.50;96.80;;;;;;5038847;28;20038;-73
2022/05/07 11:53:30;;;;;;;21.25;19.05;;;21.50;98.10;;;;;;5055730;28;20079;-73
2022/05/07 11:56:09;;;;;;;20.13;17.33;;;21.50;98.60;;;;;;5055266;28;20500;-73
2022/05/07 11:58:47;;;;;;;20.05;17.80;;;21.50;98.80;;;;;;5038940;28;20041;-73
2022/05/07 12:01:21;;;;;;;20.17;17.33;;;21.60;98.00;;;;;;5055206;28;20473;-73
2022/05/07 12:03:47;;;;;;;23.50;18.63;;;21.60;99.20;;;;;;5055162;28;20479;-73
2022/05/07 12:06:26;;;;;;;27.05;20.55;;;21.70;99.20;;;;;;5054996;28;20080;-73
2022/05/07 12:08:52;;;;;;;26.33;21.90;;;21.80;98.30;;;;;;5055064;28;20570;-73
2022/05/07 12:11:18;;;;;;;23.65;20.50;;;21.80;99.30;;;;;;5055108;28;20037;-73
2022/05/07 12:13:45;;;;;;;30.58;20.83;;;22.00;98.90;;;;;;5055025;28;20041;-73
2022/05/07 12:18:55;;;;;;;27.70;21.25;;;22.20;96.60;;;;;;5054918;28;20041;-73
2022/05/07 12:29:48;;;;;;;26.00;21.83;;;22.10;97.20;;;;;;5054891;28;20037;-73
2022/05/07 12:29:49;;;;;;;27.80;22.33;;;22.00;97.20;;;;;;5054719;28;20536;-73
2022/05/07 12:32:26;;;;;;;32.97;24.98;;;22.00;97.50;;;;;;5038109;28;20036;-73
2022/05/07 12:34:52;;;;;;;35.83;24.95;;;21.90;97.50;;;;;;5054943;28;20056;-73
2022/05/07 12:37:18;;;;;;;35.08;26.23;;;21.90;98.90;;;;;;5054857;28;20405;-71
2022/05/07 12:39:44;;;;;;;33.42;25.20;;;21.90;99.90;;;;;;5054743;28;20041;-72
2022/05/07 12:42:11;;;;;;;33.70;27.30;;;21.90;99.90;;;;;;5054449;28;20401;-72
2022/05/07 12:44:37;;;;;;;28.65;25.00;;;22.10;99.90;;;;;;5054702;28;20033;-72
2022/05/07 12:47:05;;;;;;;34.08;26.75;;;22.40;99.50;;;;;;5054253;28;20047;-72
2022/05/07 12:49:30;;;;;;;33.08;26.13;;;22.60;97.30;;;;;;5054319;28;20077;-72
2022/05/07 12:51:56;;;;;;;34.28;25.50;;;22.80;97.70;;;;;;5037884;28;20072;-72
2022/05/07 12:54:22;;;;;;;30.92;26.13;;;23.10;95.80;;;;;;5054466;28;20378;-72
2022/05/07 12:56:48;;;;;;;28.52;24.70;;;23.30;93.30;;;;;;5054222;28;20599;-70
2022/05/07 12:59:14;;;;;;;30.77;25.45;;;23.50;95.60;;;;;;5036316;28;20037;-70
2022/05/07 13:01:40;;;;;;;31.67;25.70;;;23.70;92.60;;;;;;5054076;28;20041;-70
2022/05/07 13:04:06;;;;;;;29.17;23.63;;;23.80;91.80;;;;;;5037661;28;20040;-70
2022/05/07 13:06:32;;;;;;;31.73;24.17;;;24.00;90.30;;;;;;5054277;28;20578;-70
2022/05/07 13:09:00;;;;;;;29.92;22.75;;;23.90;87.50;;;;;;5053933;28;20045;-70